createdAt,value
2022-08-02T00:02:57.424Z,3.93
2022-08-02T00:06:01.053Z,3.97
2022-08-02T00:09:05.900Z,4.23
2022-08-02T00:12:12.590Z,3.20
2022-08-02T00:15:20.196Z,3.60
2022-08-02T00:18:23.995Z,4.00
2022-08-02T00:21:27.737Z,3.83
2022-08-02T00:24:31.407Z,3.97
2022-08-02T00:27:36.567Z,4.30
2022-08-02T00:30:40.628Z,3.80
2022-08-02T00:34:26.205Z,3.87
2022-08-02T00:37:07.962Z,3.47
2022-08-02T00:40:13.023Z,3.20
2022-08-02T00:43:19.329Z,3.37
2022-08-02T00:46:23.519Z,3.33
2022-08-02T00:49:27.379Z,3.23
2022-08-02T00:52:31.183Z,3.67
2022-08-02T00:55:35.093Z,3.87
2022-08-02T00:58:40.866Z,3.47
2022-08-02T01:01:56.467Z,3.43
2022-08-02T01:05:01.798Z,3.20
2022-08-02T01:08:05.829Z,3.10
2022-08-02T01:11:10.007Z,3.47
2022-08-02T01:14:16.879Z,2.77
2022-08-02T01:17:31.600Z,3.10
2022-08-02T01:21:15.728Z,3.07
2022-08-02T01:24:38.152Z,3.60
2022-08-02T01:28:05.318Z,3.20
2022-08-02T01:31:20.185Z,2.90
2022-08-02T01:34:42.352Z,3.17
2022-08-02T01:37:56.123Z,2.90
2022-08-02T01:41:03.287Z,3.20
2022-08-02T01:44:10.339Z,3.00
2022-08-02T01:47:20.805Z,3.00
2022-08-02T01:50:32.639Z,3.00
2022-08-02T01:53:39.416Z,3.33
2022-08-02T01:56:45.770Z,3.03
2022-08-02T01:59:52.677Z,3.03
2022-08-02T02:03:01.362Z,3.10
2022-08-02T02:06:09.672Z,2.50
2022-08-02T02:09:16.596Z,2.20
2022-08-02T02:12:24.448Z,2.50
2022-08-02T02:15:32.131Z,1.90
2022-08-02T02:18:41.664Z,1.80
2022-08-02T02:21:45.592Z,2.10
2022-08-02T02:24:49.419Z,2.00
2022-08-02T02:28:01.980Z,1.90
2022-08-02T02:31:11.401Z,1.93
2022-08-02T02:34:19.350Z,2.10
2022-08-02T02:37:26.234Z,1.90
2022-08-02T02:40:31.191Z,1.73
2022-08-02T02:43:39.457Z,1.80
2022-08-02T02:46:46.048Z,1.37
2022-08-02T02:49:52.154Z,1.30
2022-08-02T02:52:57.027Z,1.40
2022-08-02T02:56:02.934Z,1.70
2022-08-02T02:59:09.223Z,1.97
2022-08-02T03:02:15.381Z,2.13
2022-08-02T03:05:19.079Z,2.00
2022-08-02T03:08:22.835Z,2.07
2022-08-02T03:11:29.874Z,2.13
2022-08-02T03:14:34.850Z,2.33
2022-08-02T03:17:46.150Z,2.07
2022-08-02T03:20:51.523Z,1.70
2022-08-02T03:23:55.211Z,1.43
2022-08-02T03:26:58.886Z,1.67
2022-08-02T03:30:02.610Z,1.70
2022-08-02T03:33:07.671Z,2.33
2022-08-02T03:36:16.406Z,2.50
2022-08-02T03:39:21.825Z,2.40
2022-08-02T03:42:27.960Z,2.43
2022-08-02T03:45:34.021Z,2.80
2022-08-02T03:48:40.126Z,2.63
2022-08-02T03:51:44.448Z,3.43
2022-08-02T03:54:48.094Z,3.10
2022-08-02T03:57:52.159Z,3.03
2022-08-02T04:00:58.930Z,3.20
2022-08-02T04:04:04.037Z,3.90
2022-08-02T04:07:08.323Z,3.70
2022-08-02T04:10:12.541Z,3.20
2022-08-02T04:13:16.176Z,2.67
2022-08-02T04:16:29.688Z,3.17
2022-08-02T04:19:43.685Z,3.17
2022-08-02T04:22:54.121Z,3.30
2022-08-02T04:26:00.353Z,3.20
2022-08-02T04:29:06.866Z,3.60
2022-08-02T04:32:11.489Z,3.77
2022-08-02T04:35:19.660Z,3.40
2022-08-02T04:38:23.843Z,3.40
2022-08-02T04:41:42.362Z,3.73
2022-08-02T04:44:47.480Z,3.93
2022-08-02T04:48:03.385Z,3.87
2022-08-02T04:51:09.375Z,4.30
2022-08-02T04:54:14.095Z,4.50
2022-08-02T04:57:34.196Z,4.50
2022-08-02T05:00:37.907Z,4.50
2022-08-02T05:03:41.610Z,4.17
2022-08-02T05:06:46.704Z,4.13
2022-08-02T05:09:50.280Z,4.27
2022-08-02T05:12:54.301Z,5.00
2022-08-02T05:15:58.939Z,4.60
2022-08-02T05:19:03.436Z,4.17
2022-08-02T05:22:08.914Z,5.00
2022-08-02T05:25:13.361Z,4.87
2022-08-02T05:28:17.174Z,4.43
2022-08-02T05:31:25.958Z,4.53
2022-08-02T05:34:29.768Z,4.50
2022-08-02T05:37:35.312Z,4.80
2022-08-02T05:40:54.490Z,4.70
2022-08-02T05:43:58.456Z,4.47
2022-08-02T05:47:02.164Z,4.60
2022-08-02T05:50:08.128Z,5.30
2022-08-02T05:53:25.987Z,5.10
2022-08-02T05:56:36.424Z,4.90
2022-08-02T05:59:49.535Z,5.03
2022-08-02T06:03:19.093Z,4.77
2022-08-02T06:06:26.708Z,4.60
2022-08-02T06:09:34.243Z,4.50
2022-08-02T06:12:49.783Z,4.13
2022-08-02T06:15:55.908Z,4.70
2022-08-02T06:19:01.291Z,4.83
2022-08-02T06:22:33.088Z,4.87
2022-08-02T06:25:49.739Z,4.63
2022-08-02T06:28:56.524Z,4.53
2022-08-02T06:32:00.963Z,4.43
2022-08-02T06:35:06.664Z,4.37
2022-08-02T06:38:16.260Z,4.40
2022-08-02T06:41:23.839Z,3.83
2022-08-02T06:44:47.951Z,3.87
2022-08-02T06:47:51.464Z,3.20
2022-08-02T06:50:55.293Z,3.03
2022-08-02T06:53:59.015Z,2.87
2022-08-02T06:57:04.059Z,3.37
2022-08-02T07:00:09.974Z,3.07
2022-08-02T07:03:13.916Z,2.87
2022-08-02T07:06:17.635Z,3.00
2022-08-02T07:09:22.195Z,2.40
2022-08-02T07:12:29.895Z,2.67
2022-08-02T07:15:34.847Z,2.30
2022-08-02T07:18:38.473Z,2.53
2022-08-02T07:21:56.667Z,2.73
2022-08-02T07:25:06.240Z,2.10
2022-08-02T07:28:23.587Z,2.60
2022-08-02T07:31:27.877Z,2.47
2022-08-02T07:34:31.447Z,2.13
2022-08-02T07:37:55.626Z,2.20
2022-08-02T07:41:02.459Z,2.23
2022-08-02T07:44:07.687Z,2.77
2022-08-02T07:47:11.577Z,2.00
2022-08-02T07:50:19.128Z,2.20
2022-08-02T07:53:49.721Z,2.40
2022-08-02T07:56:46.407Z,2.50
2022-08-02T07:59:56.038Z,2.23
2022-08-02T08:03:00.477Z,2.53
2022-08-02T08:06:04.176Z,2.00
2022-08-02T08:09:07.951Z,2.60
2022-08-02T08:12:13.482Z,2.27
2022-08-02T08:15:18.828Z,2.97
2022-08-02T08:18:23.564Z,2.53
2022-08-02T08:21:27.296Z,2.70
2022-08-02T08:24:31.716Z,2.27
2022-08-02T08:27:35.790Z,1.80
2022-08-02T08:30:42.635Z,2.17
2022-08-02T08:33:46.268Z,1.80
2022-08-02T08:36:50.207Z,1.90
2022-08-02T08:39:58.258Z,2.13
2022-08-02T08:43:02.459Z,2.90
2022-08-02T08:46:12.275Z,2.30
2022-08-02T08:49:26.749Z,2.20
2022-08-02T08:52:36.736Z,1.90
2022-08-02T08:55:40.698Z,1.90
2022-08-02T08:58:46.169Z,2.27
2022-08-02T09:01:52.824Z,2.10
2022-08-02T09:04:56.731Z,1.60
2022-08-02T09:08:00.420Z,2.03
2022-08-02T09:11:14.083Z,2.13
2022-08-02T09:14:29.595Z,1.87
2022-08-02T09:17:34.687Z,1.97
2022-08-02T09:20:57.512Z,2.17
2022-08-02T09:24:02.221Z,1.97
2022-08-02T09:27:14.162Z,2.13
2022-08-02T09:30:18.575Z,1.67
2022-08-02T09:33:29.279Z,1.90
2022-08-02T09:36:41.775Z,1.70
2022-08-02T09:39:46.577Z,1.73
2022-08-02T09:43:00.776Z,1.57
2022-08-02T09:46:13.849Z,1.93
2022-08-02T09:49:20.469Z,1.37
2022-08-02T09:52:37.102Z,1.37
2022-08-02T09:55:57.301Z,1.77
2022-08-02T09:59:08.944Z,1.60
2022-08-02T10:02:16.921Z,1.20
2022-08-02T10:05:23.420Z,1.97
2022-08-02T10:08:29.483Z,1.00
2022-08-02T10:11:37.436Z,1.47
2022-08-02T10:14:41.363Z,1.23
2022-08-02T10:17:46.469Z,1.50
2022-08-02T10:20:56.034Z,1.20
2022-08-02T10:24:08.999Z,1.33
2022-08-02T10:27:18.943Z,1.50
2022-08-02T10:30:26.119Z,1.10
2022-08-02T10:33:36.011Z,1.13
2022-08-02T10:36:43.705Z,1.60
2022-08-02T10:39:50.802Z,1.50
2022-08-02T10:43:00.590Z,1.73
2022-08-02T10:46:32.903Z,1.50
2022-08-02T10:49:50.861Z,1.30
2022-08-02T10:53:29.959Z,1.70
2022-08-02T10:56:49.000Z,1.20
2022-08-02T10:59:57.424Z,1.30
2022-08-02T11:03:01.170Z,1.23
2022-08-02T11:06:07.663Z,1.10
2022-08-02T11:09:33.352Z,1.20
2022-08-02T11:13:03.015Z,1.40
2022-08-02T11:16:11.639Z,1.23
2022-08-02T11:19:15.643Z,1.20
2022-08-02T11:22:23.843Z,1.30
2022-08-02T11:29:00.820Z,1.40
2022-08-02T11:32:05.272Z,1.27
2022-08-02T11:35:10.484Z,1.03
2022-08-02T11:38:19.803Z,1.10
2022-08-02T11:41:46.265Z,1.10
2022-08-02T11:44:49.359Z,1.23
2022-08-02T11:47:55.962Z,1.57
2022-08-02T11:51:11.164Z,1.53
2022-08-02T11:54:24.171Z,1.07
2022-08-02T11:57:29.296Z,1.20
2022-08-02T12:00:54.913Z,1.40
2022-08-02T12:04:01.022Z,1.20
2022-08-02T12:07:07.323Z,1.60
2022-08-02T12:10:16.990Z,1.40
2022-08-02T12:13:24.378Z,1.30
2022-08-02T12:16:55.720Z,1.37
2022-08-02T12:19:59.432Z,1.13
2022-08-02T12:23:05.053Z,1.40
2022-08-02T12:26:16.004Z,1.40
2022-08-02T12:29:58.253Z,1.30
2022-08-02T12:33:13.282Z,1.40
2022-08-02T12:36:18.129Z,1.50
2022-08-02T12:39:21.766Z,1.70
2022-08-02T12:42:27.248Z,1.47
2022-08-02T12:45:48.865Z,1.70
2022-08-02T12:49:16.736Z,2.23
2022-08-02T12:52:21.893Z,1.50
2022-08-02T12:56:00.075Z,1.83
2022-08-02T12:58:52.283Z,1.70
2022-08-02T13:02:04.528Z,1.77
2022-08-02T13:05:08.808Z,1.80
2022-08-02T13:08:12.961Z,1.90
2022-08-02T13:11:17.251Z,1.67
2022-08-02T13:14:21.076Z,2.13
2022-08-02T13:17:26.105Z,1.80
2022-08-02T13:20:31.348Z,1.80
2022-08-02T13:23:54.206Z,2.00
2022-08-02T13:26:59.020Z,2.00
2022-08-02T13:30:10.085Z,2.00
2022-08-02T13:33:16.164Z,2.20
2022-08-02T13:36:19.949Z,2.33
2022-08-02T13:39:23.684Z,1.80
2022-08-02T13:42:27.315Z,2.10
2022-08-02T13:45:31.085Z,2.60
2022-08-02T13:48:36.285Z,1.97
2022-08-02T13:51:39.874Z,2.03
2022-08-02T13:54:43.543Z,2.37
2022-08-02T13:57:53.619Z,2.43
2022-08-02T14:00:58.119Z,1.70
2022-08-02T14:04:08.024Z,1.50
2022-08-02T14:07:13.012Z,1.77
2022-08-02T14:10:16.837Z,1.80
2022-08-02T14:13:20.971Z,1.90
2022-08-02T14:16:24.790Z,1.80
2022-08-02T14:19:38.366Z,2.00
2022-08-02T14:22:43.944Z,1.97
2022-08-02T14:25:47.731Z,2.73
2022-08-02T14:28:51.563Z,2.00
2022-08-02T14:31:55.442Z,1.83
2022-08-02T14:35:00.667Z,1.60
2022-08-02T14:38:04.523Z,1.70
2022-08-02T14:41:08.384Z,1.87
2022-08-02T14:44:12.133Z,1.50
2022-08-02T14:47:15.923Z,1.77
2022-08-02T14:50:21.757Z,1.70
2022-08-02T14:53:25.497Z,2.10
2022-08-02T14:56:29.648Z,1.97
2022-08-02T14:59:33.372Z,1.90
2022-08-02T15:02:37.140Z,1.80
2022-08-02T15:05:42.235Z,2.20
2022-08-02T15:08:45.993Z,2.03
2022-08-02T15:11:50.025Z,2.20
2022-08-02T15:14:53.981Z,2.17
2022-08-02T15:17:57.667Z,2.23
2022-08-02T15:21:07.995Z,1.97
2022-08-02T15:24:27.108Z,2.00
2022-08-02T15:27:30.823Z,2.00
2022-08-02T15:30:34.628Z,2.30
2022-08-02T15:33:38.363Z,2.40
2022-08-02T15:36:43.367Z,2.10
2022-08-02T15:39:47.244Z,2.53
2022-08-02T15:42:53.762Z,2.10
2022-08-02T15:45:57.552Z,2.33
2022-08-02T15:49:01.420Z,2.17
2022-08-02T15:52:07.247Z,2.30
2022-08-02T15:55:10.909Z,2.13
2022-08-02T15:58:16.792Z,2.37
2022-08-02T16:01:21.594Z,2.40
2022-08-02T16:04:25.387Z,2.23
2022-08-02T16:07:30.448Z,2.67
2022-08-02T16:10:34.181Z,3.00
2022-08-02T16:13:54.617Z,3.03
2022-08-02T16:16:58.487Z,2.90
2022-08-02T16:20:02.230Z,3.13
2022-08-02T16:23:07.704Z,3.03
2022-08-02T16:26:11.449Z,2.87
2022-08-02T16:29:19.198Z,2.70
2022-08-02T16:32:23.369Z,2.80
2022-08-02T16:35:28.159Z,2.73
2022-08-02T16:38:33.424Z,2.87
2022-08-02T16:41:51.925Z,2.60
2022-08-02T16:44:56.679Z,2.90
2022-08-02T16:48:03.613Z,2.60
2022-08-02T16:51:13.594Z,2.90
2022-08-02T16:54:19.164Z,2.80
2022-08-02T16:57:22.910Z,2.30
2022-08-02T17:00:26.645Z,2.40
2022-08-02T17:03:55.556Z,2.13
2022-08-02T17:06:54.038Z,2.33
2022-08-02T17:10:06.500Z,2.27
2022-08-02T17:13:12.808Z,2.07
2022-08-02T17:16:20.778Z,2.53
2022-08-02T17:19:29.779Z,2.50
2022-08-02T17:22:44.313Z,1.90
2022-08-02T17:25:52.776Z,2.20
2022-08-02T17:29:15.405Z,1.97
2022-08-02T17:32:20.442Z,2.03
2022-08-02T17:35:24.324Z,2.00
2022-08-02T17:38:28.659Z,2.30
2022-08-02T17:41:39.086Z,2.10
2022-08-02T17:44:55.277Z,1.87
2022-08-02T17:48:10.852Z,2.00
2022-08-02T17:52:15.921Z,2.20
2022-08-02T17:54:42.349Z,1.90
2022-08-02T17:57:57.821Z,1.70
2022-08-02T18:01:23.457Z,1.97
2022-08-02T18:04:29.868Z,1.97
2022-08-02T18:07:49.135Z,2.00
2022-08-02T18:10:55.965Z,2.00
2022-08-02T18:14:01.121Z,1.90
2022-08-02T18:17:06.580Z,1.90
2022-08-02T18:20:12.305Z,1.97
2022-08-02T18:23:17.641Z,1.73
2022-08-02T18:26:22.193Z,2.10
2022-08-02T18:29:30.200Z,2.23
2022-08-02T18:36:06.644Z,2.50
2022-08-02T18:39:10.387Z,1.93
2022-08-02T18:42:15.576Z,2.10
2022-08-02T18:45:22.902Z,2.43
2022-08-02T18:48:29.974Z,2.30
2022-08-02T18:51:36.579Z,1.90
2022-08-02T18:54:40.460Z,2.00
2022-08-02T18:58:01.800Z,2.80
2022-08-02T19:01:14.788Z,2.23
2022-08-02T19:04:27.166Z,2.30
2022-08-02T19:07:50.984Z,2.50
2022-08-02T19:10:56.361Z,2.30
2022-08-02T19:14:01.056Z,2.53
2022-08-02T19:17:15.786Z,2.40
2022-08-02T19:20:31.314Z,3.03
2022-08-02T19:23:35.495Z,2.90
2022-08-02T19:26:40.824Z,2.37
2022-08-02T19:29:48.680Z,2.53
2022-08-02T19:32:59.230Z,2.43
2022-08-02T19:36:05.093Z,2.50
2022-08-02T19:39:08.691Z,2.50
2022-08-02T19:42:12.361Z,2.83
2022-08-02T19:45:16.346Z,3.17
2022-08-02T19:48:23.845Z,2.63
2022-08-02T19:51:49.715Z,2.43
2022-08-02T19:58:16.968Z,2.93
2022-08-02T20:01:28.289Z,3.20
2022-08-02T20:04:42.485Z,3.13
2022-08-02T20:07:56.181Z,3.07
2022-08-02T20:11:00.313Z,2.80
2022-08-02T20:14:05.811Z,2.87
2022-08-02T20:17:11.673Z,3.43
2022-08-02T20:20:16.988Z,2.70
2022-08-02T20:23:32.413Z,2.93
2022-08-02T20:26:47.926Z,3.00
2022-08-02T20:29:52.636Z,3.67
2022-08-02T20:33:21.013Z,3.87
2022-08-02T20:36:22.983Z,3.73
2022-08-02T20:39:42.890Z,3.30
2022-08-02T20:42:48.562Z,3.63
2022-08-02T20:45:52.428Z,3.63
2022-08-02T20:48:59.526Z,3.83
2022-08-02T20:52:23.748Z,3.10
2022-08-02T20:55:30.860Z,2.90
2022-08-02T20:58:35.343Z,3.30
2022-08-02T21:01:39.947Z,3.60
2022-08-02T21:05:00.799Z,3.10
2022-08-02T21:08:15.012Z,3.10
2022-08-02T21:11:19.245Z,3.20
2022-08-02T21:14:29.023Z,3.30
2022-08-02T21:17:46.688Z,2.93
2022-08-02T21:20:56.222Z,3.20
2022-08-02T21:27:53.226Z,3.17
2022-08-02T21:30:48.571Z,3.30
2022-08-02T21:33:57.827Z,3.13
2022-08-02T21:37:09.919Z,3.60
2022-08-02T21:40:15.522Z,3.07
2022-08-02T21:43:20.018Z,2.93
2022-08-02T21:46:39.255Z,3.00
2022-08-02T21:50:13.645Z,2.97
2022-08-02T21:53:13.289Z,2.83
2022-08-02T21:56:23.876Z,2.67
2022-08-02T21:59:27.607Z,3.53
2022-08-02T22:02:31.378Z,3.00
2022-08-02T22:05:37.184Z,2.83
2022-08-02T22:08:41.161Z,2.63
2022-08-02T22:11:47.015Z,3.23
2022-08-02T22:14:54.157Z,3.33
2022-08-02T22:18:00.097Z,3.03
2022-08-02T22:21:14.216Z,3.50
2022-08-02T22:24:30.286Z,3.60
2022-08-02T22:28:35.360Z,3.70
2022-08-02T22:31:04.464Z,3.30
2022-08-02T22:34:11.655Z,3.70
2022-08-02T22:40:55.429Z,3.90
2022-08-02T22:44:00.565Z,3.50
2022-08-02T22:47:11.693Z,3.80
2022-08-02T22:50:19.187Z,3.60
2022-08-02T22:53:35.892Z,3.70
2022-08-02T22:56:39.960Z,3.63
2022-08-02T22:58:44.769Z,2.40
2022-08-02T22:58:53.721Z,3.20
2022-08-02T22:59:02.657Z,3.13
2022-08-02T22:59:49.804Z,3.83
2022-08-02T23:02:53.659Z,4.23
2022-08-02T23:05:58.117Z,3.90
2022-08-02T23:09:01.669Z,4.20
2022-08-02T23:12:06.664Z,3.67
2022-08-02T23:15:13.643Z,3.90
2022-08-02T23:18:34.573Z,3.70
2022-08-02T23:21:45.700Z,3.57
2022-08-02T23:25:03.375Z,4.30
2022-08-02T23:28:07.199Z,3.70
2022-08-02T23:31:33.270Z,3.60
2022-08-02T23:34:41.608Z,4.17
2022-08-02T23:38:00.024Z,4.13
2022-08-02T23:41:05.504Z,3.73
2022-08-02T23:44:16.337Z,4.43
2022-08-02T23:47:21.893Z,4.20
2022-08-02T23:50:25.784Z,4.23
2022-08-02T23:53:30.246Z,4.33
2022-08-02T23:56:33.917Z,3.87
2022-08-02T23:59:37.613Z,3.93
